首页
METAR-TAF:

METAR-TAF

机场 :

格林贝, 威斯康辛州, 美国

纬度: 44-28-46N, 经度: 088-08-12W, 海拔: 211米

当前天气观测

该预报发布于23分钟前的14:53 UTC
风速6节,风向
温度 21°C
湿度 88%
气压 1009 hPa
能見度: 16.1公里
散云层高于11000英尺
小雨

METAR: KGRB 221453Z 17006KT 10SM -RA SCT110 21/19 A2979 RMK AO2 SLP083 P0000 60041 T02060194 58006

时间: 10:16 (15:16 UTC)

预报

该预报发布于1小时和7分钟前的14:09 UTC
预报有效从22日的 14点(UTC)到 23日的 12点(UTC)
风速6节,风向东南
能見度: 9.7公里
散云层高于1400英尺
阴天层高于10000英尺
从 22日的 1600点(UTC)
风速6节,风向西转西南
能見度: 9.7公里
散云层高于3000英尺
阴天层高于10000英尺
小阵雨
从 22日的 2200点(UTC)
风速5节,风向西
能見度: 9.7公里
散云层高于1500英尺
阴天层高于2400英尺
小阵雨
从 23日的 0000点(UTC)
风速4节,风向西转西北
能見度: 10公里
散云层高于1800英尺
阴天层高于3000英尺
小阵雨
从 23日的 0500点(UTC)
风速8节,风向西北,有时为16节阵风
能見度: 9.7公里
散云层高于1500英尺
阴天层高于2500英尺
阵雨
从 23日的 0900点(UTC)
风速7节,风向西转西北
能見度: 10公里
多云层高于3500英尺

TAF: KGRB 221409Z 2214/2312 14006KT 6SM RA SCT014 OVC100 FM221600 24006KT 6SM -SHRA SCT030 OVC100 FM222200 26005KT 6SM -SHRA SCT015 OVC024 FM230000 30004KT P6SM -SHRA SCT018 OVC030 FM230500 32008G16KT 6SM SHRA SCT015 OVC025 FM230900 29007KT P6SM BKN035

超过4000个机场的气象观测和天气预报(METAR&TAF报告)。

可查询的气象台以黄色和红色小点在地图上表示。

将鼠标移到小点上方,可查看气象台名称。

然后点击查看天气观测和预报。

如需切换地图:点击带黑十字的绿色按钮放大地图;点击带横线的绿色按钮缩小地图;或者点击绿色箭头查看邻近地区的地图。


METAR-TAF: